createdAt,value
2023-02-13T00:00:52.440Z,17.17
2023-02-13T00:03:20.165Z,15.37
2023-02-13T00:05:48.770Z,18.73
2023-02-13T00:08:16.771Z,17.97
2023-02-13T00:10:44.445Z,15.10
2023-02-13T00:13:12.625Z,13.37
2023-02-13T00:15:40.774Z,15.97
2023-02-13T00:18:10.631Z,17.87
2023-02-13T00:20:38.289Z,16.60
2023-02-13T00:23:06.327Z,21.67
2023-02-13T00:25:34.012Z,15.73
2023-02-13T00:28:01.758Z,17.40
2023-02-13T00:30:29.970Z,13.87
2023-02-13T00:32:57.625Z,15.97
2023-02-13T00:35:27.150Z,18.47
2023-02-13T00:37:55.172Z,20.70
2023-02-13T00:40:25.532Z,16.67
2023-02-13T00:42:53.246Z,17.60
2023-02-13T00:45:20.876Z,16.30
2023-02-13T00:47:48.523Z,19.77
2023-02-13T00:50:17.192Z,20.40
2023-02-13T00:52:46.565Z,17.53
2023-02-13T00:55:14.308Z,21.07
2023-02-13T00:57:41.993Z,16.10
2023-02-13T01:00:14.462Z,17.00
2023-02-13T01:02:42.674Z,20.00
2023-02-13T01:05:10.386Z,18.43
2023-02-13T01:07:38.448Z,20.77
2023-02-13T01:10:08.919Z,14.83
2023-02-13T01:12:37.477Z,15.97
2023-02-13T01:15:08.434Z,17.77
2023-02-13T01:17:36.123Z,16.77
2023-02-13T01:20:04.222Z,18.00
2023-02-13T01:22:31.854Z,14.80
2023-02-13T01:25:00.645Z,17.40
2023-02-13T01:27:33.550Z,12.40
2023-02-13T01:30:02.029Z,17.63
2023-02-13T01:32:31.221Z,17.67
2023-02-13T01:34:58.820Z,20.70
2023-02-13T01:37:26.953Z,17.00
2023-02-13T01:39:56.360Z,17.77
2023-02-13T01:42:27.765Z,20.10
2023-02-13T01:44:58.271Z,15.90
2023-02-13T01:47:30.443Z,12.40
2023-02-13T01:50:05.786Z,14.20
2023-02-13T01:52:34.730Z,19.03
2023-02-13T01:55:02.747Z,16.50
2023-02-13T01:57:33.450Z,21.30
2023-02-13T02:00:06.906Z,15.87
2023-02-13T02:02:49.672Z,19.00
2023-02-13T02:05:23.341Z,18.03
2023-02-13T02:07:51.794Z,23.37
2023-02-13T02:10:23.545Z,18.63
2023-02-13T02:12:56.984Z,23.20
2023-02-13T02:15:26.799Z,17.87
2023-02-13T02:17:54.819Z,18.33
2023-02-13T02:20:37.492Z,19.10
2023-02-13T02:23:35.021Z,18.70
2023-02-13T02:26:37.741Z,17.50
2023-02-13T02:29:38.729Z,16.80
2023-02-13T02:32:25.131Z,14.43
2023-02-13T02:34:59.297Z,22.23
2023-02-13T02:37:43.453Z,22.73
2023-02-13T02:40:24.371Z,19.40
2023-02-13T02:43:07.537Z,21.27
2023-02-13T02:45:41.428Z,22.23
2023-02-13T02:48:39.136Z,18.57
2023-02-13T02:51:18.127Z,19.07
2023-02-13T02:53:54.909Z,22.60
2023-02-13T02:56:28.188Z,21.73
2023-02-13T02:59:20.599Z,19.70
2023-02-13T03:02:07.702Z,18.57
2023-02-13T03:05:00.656Z,19.60
2023-02-13T03:07:29.083Z,18.97
2023-02-13T03:10:18.008Z,17.80
2023-02-13T03:13:07.300Z,21.43
2023-02-13T03:16:00.490Z,17.73
2023-02-13T03:18:48.287Z,20.93
2023-02-13T03:21:41.957Z,20.43
2023-02-13T03:24:19.073Z,18.70
2023-02-13T03:26:56.638Z,18.70
2023-02-13T03:29:55.062Z,19.40
2023-02-13T03:32:29.193Z,19.10
2023-02-13T03:35:27.957Z,19.63
2023-02-13T03:38:05.046Z,17.43
2023-02-13T03:40:59.099Z,16.87
2023-02-13T03:43:28.355Z,18.40
2023-02-13T03:45:57.784Z,20.50
2023-02-13T03:48:47.381Z,23.67
2023-02-13T03:51:19.636Z,23.43
2023-02-13T03:53:52.932Z,19.40
2023-02-13T03:56:40.898Z,23.27
2023-02-13T03:59:17.337Z,18.47
2023-02-13T04:01:51.577Z,21.40
2023-02-13T04:04:26.780Z,22.07
2023-02-13T04:06:59.253Z,23.07
2023-02-13T04:09:30.637Z,18.73
2023-02-13T04:12:07.223Z,19.00
2023-02-13T04:14:39.819Z,15.57
2023-02-13T04:17:13.974Z,23.00
2023-02-13T04:19:42.319Z,17.23
2023-02-13T04:22:13.480Z,24.43
2023-02-13T04:24:42.848Z,18.40
2023-02-13T04:27:14.152Z,20.03
2023-02-13T04:29:42.732Z,22.90
2023-02-13T04:32:11.487Z,20.30
2023-02-13T04:34:39.531Z,18.60
2023-02-13T04:37:07.487Z,18.63
2023-02-13T04:39:35.157Z,21.73
2023-02-13T04:42:04.751Z,19.47
2023-02-13T04:44:33.221Z,22.03
2023-02-13T04:47:00.862Z,19.10
2023-02-13T04:49:29.038Z,18.47
2023-02-13T04:51:56.655Z,17.40
2023-02-13T04:54:24.290Z,17.47
2023-02-13T04:56:52.311Z,21.03
2023-02-13T04:59:21.267Z,16.60
2023-02-13T05:01:48.933Z,21.60
2023-02-13T05:04:17.895Z,16.20
2023-02-13T05:06:45.531Z,23.80
2023-02-13T05:09:13.302Z,22.57
2023-02-13T05:11:41.376Z,21.93
2023-02-13T05:14:10.381Z,20.00
2023-02-13T05:16:40.153Z,17.63
2023-02-13T05:19:08.249Z,20.03
2023-02-13T05:21:54.072Z,24.90
2023-02-13T05:24:21.699Z,18.70
2023-02-13T05:26:49.681Z,18.30
2023-02-13T05:29:20.937Z,17.23
2023-02-13T05:31:51.878Z,17.50
2023-02-13T05:34:20.322Z,21.60
2023-02-13T05:36:48.310Z,26.93
2023-02-13T05:39:16.648Z,18.70
2023-02-13T05:41:46.489Z,18.23
2023-02-13T05:44:14.319Z,17.37
2023-02-13T05:46:45.094Z,16.57
2023-02-13T05:49:16.140Z,21.47
2023-02-13T05:51:44.322Z,21.07
2023-02-13T05:54:11.985Z,18.77
2023-02-13T05:56:40.471Z,25.40
2023-02-13T05:59:09.412Z,15.43
2023-02-13T06:01:37.475Z,18.80
2023-02-13T06:04:05.674Z,17.97
2023-02-13T06:06:35.947Z,19.57
2023-02-13T06:09:03.937Z,19.87
2023-02-13T06:11:31.590Z,21.17
2023-02-13T06:16:44.882Z,21.23
2023-02-13T06:19:12.920Z,15.20
2023-02-13T06:21:41.880Z,18.50
2023-02-13T06:24:10.304Z,18.70
2023-02-13T06:26:37.942Z,24.17
2023-02-13T06:29:06.930Z,18.17
2023-02-13T06:31:34.698Z,17.97
2023-02-13T06:34:02.952Z,24.80
2023-02-13T06:36:30.667Z,35.03
2023-02-13T06:39:00.129Z,34.90
2023-02-13T06:41:27.735Z,32.50
2023-02-13T06:43:55.418Z,23.60
2023-02-13T06:46:23.220Z,21.80
2023-02-13T06:48:51.234Z,24.93
2023-02-13T06:51:19.239Z,18.50
2023-02-13T06:53:47.364Z,19.80
2023-02-13T06:56:16.706Z,25.07
2023-02-13T06:58:44.387Z,24.43
2023-02-13T07:01:12.396Z,24.00
2023-02-13T07:03:40.717Z,17.33
2023-02-13T07:06:10.284Z,23.43
2023-02-13T07:08:38.377Z,21.63
2023-02-13T07:11:06.137Z,22.00
2023-02-13T07:13:36.211Z,19.27
2023-02-13T07:16:04.297Z,21.10
2023-02-13T07:18:32.304Z,21.70
2023-02-13T07:21:00.256Z,21.60
2023-02-13T07:23:27.810Z,20.93
2023-02-13T07:25:55.416Z,26.17
2023-02-13T07:28:23.274Z,24.30
2023-02-13T07:30:52.250Z,21.70
2023-02-13T07:33:24.726Z,22.33
2023-02-13T07:35:53.825Z,22.97
2023-02-13T07:38:21.676Z,21.50
2023-02-13T07:40:50.123Z,19.20
2023-02-13T07:43:18.142Z,19.87
2023-02-13T07:45:46.950Z,25.33
2023-02-13T07:48:17.387Z,27.63
2023-02-13T07:50:46.596Z,26.63
2023-02-13T07:53:14.966Z,21.27
2023-02-13T07:55:44.306Z,18.90
2023-02-13T07:58:12.199Z,20.20
2023-02-13T08:00:40.502Z,21.30
2023-02-13T08:03:08.277Z,22.73
2023-02-13T08:05:39.671Z,19.33
2023-02-13T08:08:07.834Z,27.90
2023-02-13T08:10:53.551Z,23.63
2023-02-13T08:13:21.213Z,25.43
2023-02-13T08:15:49.590Z,28.37
2023-02-13T08:18:18.977Z,26.13
2023-02-13T08:20:49.887Z,30.30
2023-02-13T08:23:18.143Z,24.23
2023-02-13T08:25:47.971Z,33.30
2023-02-13T08:28:15.657Z,33.00
2023-02-13T08:30:44.166Z,23.63
2023-02-13T08:33:11.802Z,30.43
2023-02-13T08:35:40.600Z,28.60
2023-02-13T08:38:10.776Z,31.23
2023-02-13T08:40:39.382Z,29.13
2023-02-13T08:43:08.390Z,31.17
2023-02-13T08:45:38.456Z,27.37
2023-02-13T08:48:07.472Z,29.17
2023-02-13T08:50:37.631Z,29.53
2023-02-13T08:53:06.248Z,28.17
2023-02-13T08:55:35.593Z,30.13
2023-02-13T08:58:03.992Z,35.90
2023-02-13T09:00:32.105Z,34.97
2023-02-13T09:03:02.284Z,28.70
2023-02-13T09:05:32.422Z,28.50
2023-02-13T09:08:03.119Z,34.00
2023-02-13T09:10:31.227Z,28.47
2023-02-13T09:13:02.585Z,29.27
2023-02-13T09:15:30.329Z,29.73
2023-02-13T09:18:02.189Z,21.17
2023-02-13T09:20:29.738Z,26.77
2023-02-13T09:22:57.900Z,26.20
2023-02-13T09:25:26.376Z,26.80
2023-02-13T09:27:54.139Z,25.17
2023-02-13T09:30:26.709Z,45.10
2023-02-13T09:32:55.194Z,32.57
2023-02-13T09:35:24.445Z,19.97
2023-02-13T09:37:52.328Z,19.53
2023-02-13T09:40:25.725Z,18.03
2023-02-13T09:42:54.730Z,15.47
2023-02-13T09:45:24.970Z,20.90
2023-02-13T09:47:52.902Z,18.00
2023-02-13T09:50:24.990Z,20.33
2023-02-13T09:52:55.653Z,25.30
2023-02-13T09:55:28.167Z,21.10
2023-02-13T09:58:03.515Z,17.90
2023-02-13T10:00:39.326Z,21.37
2023-02-13T10:03:22.509Z,20.60
2023-02-13T10:05:59.773Z,20.30
2023-02-13T10:08:49.512Z,23.97
2023-02-13T10:11:36.744Z,23.13
2023-02-13T10:14:12.655Z,21.93
2023-02-13T10:16:46.164Z,19.30
2023-02-13T10:19:26.489Z,24.80
2023-02-13T10:21:59.263Z,21.70
2023-02-13T10:24:34.080Z,22.20
2023-02-13T10:27:06.290Z,19.40
2023-02-13T10:29:59.991Z,16.37
2023-02-13T10:32:37.187Z,17.90
2023-02-13T10:35:19.317Z,16.63
2023-02-13T10:37:51.098Z,16.23
2023-02-13T10:40:20.437Z,19.43
2023-02-13T10:42:58.560Z,18.47
2023-02-13T10:45:44.634Z,19.93
2023-02-13T10:48:27.996Z,16.50
2023-02-13T10:51:04.615Z,21.23
2023-02-13T10:53:46.064Z,18.53
2023-02-13T10:56:38.867Z,18.73
2023-02-13T10:59:20.358Z,19.27
2023-02-13T11:01:56.139Z,20.40
2023-02-13T11:04:28.144Z,17.23
2023-02-13T11:06:58.641Z,16.47
2023-02-13T11:09:27.080Z,16.30
2023-02-13T11:11:54.877Z,17.70
2023-02-13T11:14:24.320Z,16.77
2023-02-13T11:16:57.218Z,19.80
2023-02-13T11:19:31.528Z,17.57
2023-02-13T11:22:04.405Z,15.87
2023-02-13T11:24:33.236Z,19.13
2023-02-13T11:27:05.754Z,17.80
2023-02-13T11:29:35.286Z,11.50
2023-02-13T11:32:19.792Z,14.60
2023-02-13T11:34:51.463Z,14.80
2023-02-13T11:37:22.925Z,15.30
2023-02-13T11:39:51.986Z,21.97
2023-02-13T11:42:25.893Z,13.83
2023-02-13T11:44:56.189Z,16.93
2023-02-13T11:47:40.904Z,17.83
2023-02-13T11:50:23.063Z,13.40
2023-02-13T11:52:57.159Z,15.23
2023-02-13T11:55:28.138Z,15.03
2023-02-13T11:58:01.202Z,13.93
2023-02-13T12:21:29.921Z,14.70
2023-02-13T12:24:41.792Z,13.40
2023-02-13T12:27:16.981Z,12.80
2023-02-13T12:30:33.289Z,12.67
2023-02-13T12:33:16.743Z,12.70
2023-02-13T12:35:58.177Z,14.47
2023-02-13T12:38:41.832Z,10.17
2023-02-13T12:41:21.346Z,11.50
2023-02-13T12:44:19.761Z,14.63
2023-02-13T12:46:57.163Z,10.23
2023-02-13T12:49:44.218Z,10.37
2023-02-13T12:52:27.858Z,13.10
2023-02-13T12:55:13.462Z,11.57
2023-02-13T12:57:56.883Z,10.43
2023-02-13T13:00:37.855Z,13.90
2023-02-13T13:03:26.798Z,12.90
2023-02-13T13:06:12.425Z,11.47
2023-02-13T13:09:05.589Z,10.90
2023-02-13T13:11:57.045Z,14.23
2023-02-13T13:14:34.069Z,12.37
2023-02-13T13:17:25.068Z,9.83
2023-02-13T13:20:01.341Z,15.40
2023-02-13T13:22:34.554Z,11.03
2023-02-13T13:25:10.713Z,10.17
2023-02-13T13:27:45.398Z,13.17
2023-02-13T13:30:21.760Z,11.33
2023-02-13T13:32:56.703Z,9.30
2023-02-13T13:35:24.885Z,10.67
2023-02-13T13:38:03.600Z,11.00
2023-02-13T13:40:41.625Z,8.10
2023-02-13T13:43:19.529Z,12.83
2023-02-13T13:45:53.127Z,11.80
2023-02-13T13:48:46.586Z,8.97
2023-02-13T13:51:17.544Z,10.40
2023-02-13T13:54:19.866Z,12.13
2023-02-13T13:57:12.783Z,10.10
2023-02-13T14:00:25.572Z,9.87
2023-02-13T14:03:24.600Z,11.77
2023-02-13T14:06:00.938Z,8.47
2023-02-13T14:09:06.085Z,11.70
2023-02-13T14:11:41.007Z,10.60
2023-02-13T14:14:53.994Z,16.00
2023-02-13T14:17:54.833Z,13.23
2023-02-13T14:20:34.396Z,14.77
2023-02-13T14:23:15.438Z,10.97
2023-02-13T14:25:43.625Z,13.33
2023-02-13T14:28:23.117Z,11.87
2023-02-13T14:30:55.676Z,10.07
2023-02-13T14:33:29.825Z,16.13
2023-02-13T14:36:04.906Z,13.87
2023-02-13T14:38:32.900Z,12.83
2023-02-13T14:41:01.428Z,9.60
2023-02-13T14:43:36.222Z,10.50
2023-02-13T14:46:10.884Z,12.00
2023-02-13T14:48:44.134Z,11.00
2023-02-13T14:51:28.474Z,11.83
2023-02-13T14:54:02.733Z,12.80
2023-02-13T14:56:32.226Z,10.13
2023-02-13T14:59:08.322Z,12.50
2023-02-13T15:01:40.776Z,10.07
2023-02-13T15:04:13.873Z,10.80
2023-02-13T15:06:48.080Z,10.93
2023-02-13T15:09:54.688Z,12.10
2023-02-13T15:12:30.341Z,13.30
2023-02-13T15:15:01.756Z,11.20
2023-02-13T15:17:32.701Z,11.70
2023-02-13T15:20:05.945Z,14.50
2023-02-13T15:22:38.764Z,13.93
2023-02-13T15:25:08.186Z,12.90
2023-02-13T15:27:42.017Z,10.50
2023-02-13T15:30:21.815Z,11.60
2023-02-13T15:32:55.762Z,17.00
2023-02-13T15:35:26.576Z,13.57
2023-02-13T15:37:56.620Z,10.17
2023-02-13T15:40:27.494Z,11.67
2023-02-13T15:42:59.451Z,12.20
2023-02-13T15:45:29.223Z,15.33
2023-02-13T15:47:58.373Z,11.73
2023-02-13T15:50:30.629Z,12.73
2023-02-13T15:53:03.135Z,12.37
2023-02-13T15:55:33.240Z,12.30
2023-02-13T15:58:03.107Z,14.90
2023-02-13T16:00:34.655Z,14.77
2023-02-13T16:03:05.873Z,10.53
2023-02-13T16:05:40.382Z,11.20
2023-02-13T16:08:43.542Z,11.47
2023-02-13T16:11:33.262Z,14.27
2023-02-13T16:17:38.739Z,13.03
2023-02-13T16:20:22.523Z,17.13
2023-02-13T16:22:58.548Z,18.57
2023-02-13T16:25:36.279Z,13.63
2023-02-13T16:28:20.859Z,14.97
2023-02-13T16:31:05.875Z,12.77
2023-02-13T16:33:43.192Z,17.73
2023-02-13T16:36:34.490Z,13.70
2023-02-13T16:39:19.612Z,14.40
2023-02-13T16:44:40.391Z,16.93
2023-02-13T16:47:38.234Z,12.90
2023-02-13T16:54:38.184Z,15.07
2023-02-13T16:57:20.890Z,17.13
2023-02-13T16:59:56.589Z,15.40
2023-02-13T17:02:27.150Z,13.03
2023-02-13T17:04:59.289Z,12.43
2023-02-13T17:07:29.196Z,13.33
2023-02-13T17:10:00.590Z,12.13
2023-02-13T17:12:31.585Z,16.13
2023-02-13T17:15:00.102Z,16.90
2023-02-13T17:17:30.326Z,13.73
2023-02-13T17:19:58.474Z,16.33
2023-02-13T17:22:34.545Z,13.60
2023-02-13T17:25:05.171Z,15.10
2023-02-13T17:27:35.303Z,16.43
2023-02-13T17:30:03.088Z,15.20
2023-02-13T17:32:30.975Z,17.27
2023-02-13T17:34:58.673Z,19.80
2023-02-13T17:37:28.372Z,13.97
2023-02-13T17:39:56.491Z,20.00
2023-02-13T17:42:26.122Z,14.23
2023-02-13T17:44:56.866Z,15.20
2023-02-13T17:47:25.547Z,20.43
2023-02-13T17:49:59.160Z,15.00
2023-02-13T17:52:34.202Z,19.83
2023-02-13T17:55:02.400Z,20.30
2023-02-13T17:57:30.043Z,18.27
2023-02-13T18:00:03.776Z,18.63
2023-02-13T18:02:42.792Z,16.67
2023-02-13T18:05:10.541Z,15.93
2023-02-13T18:07:39.645Z,17.90
2023-02-13T18:10:12.089Z,16.17
2023-02-13T18:12:42.645Z,16.87
2023-02-13T18:15:12.610Z,18.83
2023-02-13T18:17:40.370Z,15.43
2023-02-13T18:20:11.972Z,16.17
2023-02-13T18:22:40.091Z,16.90
2023-02-13T18:25:09.301Z,16.50
2023-02-13T18:27:37.657Z,15.53
2023-02-13T18:30:07.245Z,15.03
2023-02-13T18:32:36.727Z,16.37
2023-02-13T18:35:04.562Z,15.83
2023-02-13T18:37:33.884Z,18.27
2023-02-13T18:40:01.950Z,14.90
2023-02-13T18:42:30.197Z,17.90
2023-02-13T18:44:58.398Z,14.60
2023-02-13T18:47:26.062Z,18.60
2023-02-13T18:49:55.605Z,20.30
2023-02-13T18:52:24.030Z,18.07
2023-02-13T18:54:52.073Z,19.73
2023-02-13T18:57:19.664Z,18.07
2023-02-13T18:59:48.204Z,15.47
2023-02-13T19:02:15.916Z,16.73
2023-02-13T19:04:44.914Z,17.20
2023-02-13T19:07:13.950Z,21.43
2023-02-13T19:09:42.065Z,16.70
2023-02-13T19:12:09.894Z,16.40
2023-02-13T19:14:37.726Z,17.50
2023-02-13T19:17:05.390Z,17.37
2023-02-13T19:19:33.011Z,17.00
2023-02-13T19:22:00.608Z,21.57
2023-02-13T19:24:29.618Z,17.00
2023-02-13T19:26:57.244Z,15.47
2023-02-13T19:29:24.934Z,16.20
2023-02-13T19:31:53.035Z,17.37
2023-02-13T19:34:20.714Z,17.47
2023-02-13T19:36:48.784Z,16.80
2023-02-13T19:39:16.657Z,14.80
2023-02-13T19:41:45.885Z,18.00
2023-02-13T19:44:13.637Z,19.30
2023-02-13T19:46:41.275Z,22.97
2023-02-13T19:49:10.304Z,20.87
2023-02-13T19:51:37.899Z,21.20
2023-02-13T19:54:07.597Z,20.57
2023-02-13T19:56:39.303Z,20.60
2023-02-13T19:59:12.520Z,21.13
2023-02-13T20:01:42.547Z,18.13
2023-02-13T20:04:10.977Z,21.23
2023-02-13T20:06:39.150Z,19.03
2023-02-13T20:09:09.798Z,20.30
2023-02-13T20:11:38.330Z,21.37
2023-02-13T20:14:06.959Z,20.87
2023-02-13T20:16:36.890Z,18.87
2023-02-13T20:19:07.508Z,18.80
2023-02-13T20:21:35.574Z,19.77
2023-02-13T20:24:03.893Z,21.33
2023-02-13T20:26:31.976Z,19.10
2023-02-13T20:28:59.914Z,21.90
2023-02-13T20:31:30.051Z,22.73
2023-02-13T20:33:59.736Z,24.30
2023-02-13T20:36:29.977Z,21.60
2023-02-13T20:39:00.341Z,25.37
2023-02-13T20:41:31.448Z,26.07
2023-02-13T20:44:00.536Z,21.73
2023-02-13T20:46:30.321Z,19.50
2023-02-13T20:49:00.382Z,16.90
2023-02-13T20:51:28.033Z,18.77
2023-02-13T20:53:57.531Z,18.33
2023-02-13T20:56:28.532Z,19.10
2023-02-13T20:58:57.809Z,19.90
2023-02-13T21:01:28.686Z,22.47
2023-02-13T21:03:57.190Z,18.47
2023-02-13T21:06:28.687Z,21.67
2023-02-13T21:08:56.814Z,25.30
2023-02-13T21:11:25.294Z,24.53
2023-02-13T21:13:53.043Z,22.30
2023-02-13T21:16:23.176Z,23.80
2023-02-13T21:18:53.696Z,24.30
2023-02-13T21:21:23.337Z,26.90
2023-02-13T21:23:55.386Z,18.80
2023-02-13T21:26:23.916Z,16.70
2023-02-13T21:28:52.092Z,22.17
2023-02-13T21:31:24.091Z,19.20
2023-02-13T21:33:52.505Z,28.27
2023-02-13T21:36:20.540Z,23.47
2023-02-13T21:38:49.012Z,20.43
2023-02-13T21:41:19.245Z,21.60
2023-02-13T21:43:49.154Z,16.70
2023-02-13T21:46:19.922Z,15.40
2023-02-13T21:48:48.498Z,24.73
2023-02-13T21:51:19.651Z,22.77
2023-02-13T21:53:50.265Z,20.80
2023-02-13T21:56:22.267Z,23.17
2023-02-13T21:58:50.672Z,20.00
2023-02-13T22:01:26.608Z,24.13
2023-02-13T22:03:59.036Z,20.70
2023-02-13T22:06:29.772Z,18.77
2023-02-13T22:08:58.989Z,23.87
2023-02-13T22:11:28.621Z,22.07
2023-02-13T22:13:57.314Z,20.47
2023-02-13T22:16:25.858Z,21.80
2023-02-13T22:18:53.646Z,22.43
2023-02-13T22:21:24.085Z,24.00
2023-02-13T22:23:53.207Z,26.47
2023-02-13T22:26:23.799Z,23.63
2023-02-13T22:28:54.401Z,24.10
2023-02-13T22:31:25.823Z,14.50
2023-02-13T22:34:04.230Z,21.20
2023-02-13T22:36:34.333Z,16.53
2023-02-13T22:39:02.442Z,21.60
2023-02-13T22:41:30.537Z,21.50
2023-02-13T22:44:00.186Z,23.60
2023-02-13T22:46:30.201Z,27.33
2023-02-13T22:48:58.355Z,25.07
2023-02-13T22:51:29.422Z,27.20
2023-02-13T22:53:58.646Z,24.47
2023-02-13T22:56:27.838Z,25.57
2023-02-13T22:58:55.741Z,28.70
2023-02-13T23:01:26.929Z,28.00
2023-02-13T23:03:55.104Z,24.73
2023-02-13T23:06:23.857Z,21.07
2023-02-13T23:08:53.273Z,25.43
2023-02-13T23:11:40.833Z,25.97
2023-02-13T23:14:09.965Z,24.80
2023-02-13T23:17:00.393Z,23.27
2023-02-13T23:19:30.570Z,23.57
2023-02-13T23:21:59.142Z,21.40
2023-02-13T23:24:26.874Z,22.80
2023-02-13T23:26:54.849Z,21.30
2023-02-13T23:29:22.493Z,20.30
2023-02-13T23:31:51.929Z,19.63
2023-02-13T23:34:19.940Z,22.80
2023-02-13T23:36:47.702Z,27.17
2023-02-13T23:39:15.704Z,22.97
2023-02-13T23:41:43.309Z,22.30
2023-02-13T23:44:11.745Z,19.07
2023-02-13T23:46:39.440Z,24.07
2023-02-13T23:49:08.820Z,26.90
2023-02-13T23:51:37.401Z,23.90
2023-02-13T23:54:05.614Z,28.53
2023-02-13T23:56:33.386Z,18.20
2023-02-13T23:59:01.836Z,28.60
